Time;durP1;ratioP1;P1;durP2;ratioP2;P2;SDS_P1;SDS_P2;PMS_P1;PMS_P2;Temp;Humidity;BMP_temperature;BMP_pressure;BME280_temperature;BME280_humidity;BME280_pressure;Samples;Min_cycle;Max_cycle;Signal;HPM_P1;HPM_P2
2022/11/13 00:02:02;;;;;;;36.90;16.50;;;;;;;8.52;90.76;101912.40;103268;1282;25582;-61
2022/11/13 00:04:34;;;;;;;36.80;17.60;;;;;;;8.53;90.85;101912.46;103185;1281;25353;-61
2022/11/13 00:07:06;;;;;;;33.80;14.40;;;;;;;8.53;90.87;101907.45;103232;1296;22482;-59
2022/11/13 00:09:37;;;;;;;36.00;15.70;;;;;;;8.52;90.77;101901.34;103333;1282;23176;-60
2022/11/13 00:12:09;;;;;;;37.80;15.80;;;;;;;8.53;90.88;101906.09;103350;1303;22463;-61
2022/11/13 00:14:41;;;;;;;36.80;15.00;;;;;;;8.53;90.71;101903.24;103322;1297;23073;-60
2022/11/13 00:17:13;;;;;;;30.30;14.40;;;;;;;8.51;90.42;101905.33;103311;1281;22595;-59
2022/11/13 00:19:45;;;;;;;34.10;15.60;;;;;;;8.52;90.59;101906.44;103245;1290;25388;-59
2022/11/13 00:22:17;;;;;;;36.40;15.60;;;;;;;8.51;90.59;101901.91;103178;1281;22459;-61
2022/11/13 00:24:48;;;;;;;28.30;13.10;;;;;;;8.50;90.56;101899.40;103291;1298;22470;-60
2022/11/13 00:27:19;;;;;;;37.00;13.60;;;;;;;8.48;90.56;101904.91;103243;1304;24717;-60
2022/11/13 00:29:53;;;;;;;33.60;13.80;;;;;;;8.49;90.71;101906.00;103300;1304;24347;-61
2022/11/13 00:32:25;;;;;;;32.50;12.90;;;;;;;8.48;90.49;101913.49;103420;1274;22471;-60
2022/11/13 00:34:56;;;;;;;36.10;12.30;;;;;;;8.48;90.45;101918.52;103329;1280;23173;-60
2022/11/13 00:37:28;;;;;;;31.30;13.60;;;;;;;8.47;90.48;101914.55;103209;1304;22462;-60
2022/11/13 00:39:59;;;;;;;34.50;15.80;;;;;;;8.48;90.64;101917.96;103244;1282;22477;-63
2022/11/13 00:42:32;;;;;;;33.20;14.10;;;;;;;8.50;90.64;101920.16;103292;1306;24152;-63
2022/11/13 00:45:07;;;;;;;40.20;15.70;;;;;;;8.49;90.62;101916.98;103306;1305;22478;-61
2022/11/13 00:47:39;;;;;;;32.50;14.80;;;;;;;8.47;90.51;101911.69;103423;1297;24805;-63
2022/11/13 00:50:11;;;;;;;35.10;14.40;;;;;;;8.44;90.57;101910.08;103431;1304;25286;-64
2022/11/13 00:52:43;;;;;;;34.70;15.20;;;;;;;8.44;90.74;101903.94;103329;1303;25222;-62
2022/11/13 00:55:14;;;;;;;30.70;14.00;;;;;;;8.44;90.77;101897.02;103276;1291;22576;-60
2022/11/13 00:57:46;;;;;;;33.20;13.00;;;;;;;8.44;90.70;101895.20;103456;1281;22464;-61
2022/11/13 01:00:19;;;;;;;38.00;15.60;;;;;;;8.43;90.63;101895.05;103513;1280;25441;-58
2022/11/13 01:02:51;;;;;;;35.10;15.40;;;;;;;8.43;90.66;101889.96;103482;1303;25359;-62
2022/11/13 01:05:22;;;;;;;31.80;14.20;;;;;;;8.41;90.54;101885.54;103372;1304;25395;-60
2022/11/13 01:07:55;;;;;;;33.20;15.50;;;;;;;8.41;90.70;101882.45;103306;1306;22510;-60
2022/11/13 01:10:27;;;;;;;37.30;14.70;;;;;;;8.43;90.54;101882.81;103371;1306;26546;-60
2022/11/13 01:12:59;;;;;;;32.80;14.10;;;;;;;8.44;90.60;101879.94;103204;1305;22476;-61
2022/11/13 01:15:30;;;;;;;32.70;13.60;;;;;;;8.45;90.67;101879.91;103341;1281;23901;-62
2022/11/13 01:18:01;;;;;;;31.70;13.70;;;;;;;8.45;90.63;101877.05;103358;1304;25405;-61
2022/11/13 01:20:33;;;;;;;33.40;11.70;;;;;;;8.46;90.63;101876.41;103539;1286;22541;-60
2022/11/13 01:23:05;;;;;;;31.30;13.70;;;;;;;8.45;90.45;101872.36;103411;1280;24379;-62
2022/11/13 01:25:36;;;;;;;33.10;14.70;;;;;;;8.43;90.52;101868.98;103326;1298;22472;-62
2022/11/13 01:28:09;;;;;;;31.50;12.90;;;;;;;8.41;90.52;101860.19;103302;1281;25233;-61
2022/11/13 01:30:41;;;;;;;33.40;13.80;;;;;;;8.41;90.69;101860.42;103275;1290;22478;-60
2022/11/13 01:33:13;;;;;;;33.60;14.90;;;;;;;8.41;90.58;101863.05;103353;1301;22472;-60
2022/11/13 01:35:45;;;;;;;40.40;16.90;;;;;;;8.41;90.46;101857.34;103405;1304;25242;-61
2022/11/13 01:38:16;;;;;;;39.40;17.60;;;;;;;8.39;90.63;101857.13;103242;1274;22464;-59
2022/11/13 01:40:48;;;;;;;36.10;17.10;;;;;;;8.39;90.57;101855.55;103273;1304;22491;-60
2022/11/13 01:43:27;;;;;;;41.10;18.30;;;;;;;8.36;90.28;101853.45;103273;1274;22456;-60
2022/11/13 01:46:14;;;;;;;42.70;17.30;;;;;;;8.35;90.39;101845.20;103360;1304;25469;-60
2022/11/13 01:48:50;;;;;;;36.90;16.70;;;;;;;8.30;89.97;101847.03;103398;1290;24463;-61
2022/11/13 01:51:28;;;;;;;36.30;16.00;;;;;;;8.26;90.11;101849.80;103353;1282;24260;-61
2022/11/13 01:54:01;;;;;;;35.90;15.10;;;;;;;8.25;90.14;101846.46;103414;1278;22468;-61
2022/11/13 01:56:32;;;;;;;35.50;16.50;;;;;;;8.25;90.25;101843.21;103645;1303;22488;-60
2022/11/13 01:59:08;;;;;;;39.60;16.40;;;;;;;8.25;90.14;101839.50;103443;1310;24260;-61
2022/11/13 02:01:40;;;;;;;36.40;16.00;;;;;;;8.24;89.86;101834.64;103203;1304;22469;-60
2022/11/13 02:04:13;;;;;;;37.90;17.60;;;;;;;8.23;89.98;101839.42;103248;1306;25372;-59
2022/11/13 02:06:48;;;;;;;39.40;17.10;;;;;;;8.23;89.99;101831.48;103253;1303;25302;-60
2022/11/13 02:09:23;;;;;;;38.60;16.90;;;;;;;8.22;89.99;101829.02;103289;1281;22586;-60
2022/11/13 02:11:57;;;;;;;35.90;16.80;;;;;;;8.22;89.91;101828.23;103364;1298;22464;-61
2022/11/13 02:14:30;;;;;;;38.70;17.70;;;;;;;8.21;90.06;101823.86;103411;1293;24336;-61
2022/11/13 02:17:05;;;;;;;35.80;15.80;;;;;;;8.22;90.07;101820.84;103326;1303;22488;-59
2022/11/13 02:19:40;;;;;;;37.50;16.40;;;;;;;8.22;90.15;101822.02;103210;1281;25223;-60
2022/11/13 02:22:19;;;;;;;38.80;16.40;;;;;;;8.24;90.19;101825.25;103199;1280;25318;-61
2022/11/13 02:24:50;;;;;;;35.40;17.40;;;;;;;8.23;90.08;101822.40;103268;1287;22468;-60
2022/11/13 02:27:30;;;;;;;38.80;18.60;;;;;;;8.23;90.04;101821.30;103182;1294;22476;-61
2022/11/13 02:30:14;;;;;;;40.50;19.20;;;;;;;8.23;90.15;101823.69;103510;1304;24545;-62
2022/11/13 02:32:46;;;;;;;44.70;17.60;;;;;;;8.22;90.00;101821.16;103297;1306;22503;-60
2022/11/13 02:35:22;;;;;;;38.70;17.10;;;;;;;8.20;89.90;101819.20;103279;1280;23243;-60
2022/11/13 02:37:55;;;;;;;35.80;17.00;;;;;;;8.19;90.11;101814.94;103251;1302;23945;-61
2022/11/13 02:40:28;;;;;;;37.00;17.60;;;;;;;8.18;90.03;101812.08;103245;1286;25301;-61
2022/11/13 02:42:59;;;;;;;39.40;17.50;;;;;;;8.19;90.09;101809.84;103189;1287;22468;-59
2022/11/13 02:45:30;;;;;;;37.50;17.40;;;;;;;8.16;89.94;101807.58;103420;1282;26369;-63
2022/11/13 02:48:06;;;;;;;39.00;18.20;;;;;;;8.14;89.86;101798.79;103356;1301;22692;-61
2022/11/13 02:50:39;;;;;;;39.00;18.90;;;;;;;8.12;90.00;101795.59;103453;1303;26299;-61
2022/11/13 02:53:11;;;;;;;42.80;20.00;;;;;;;8.12;90.11;101800.66;103423;1281;22602;-60
2022/11/13 02:55:43;;;;;;;39.70;19.30;;;;;;;8.11;90.03;101792.25;103414;1281;25600;-61
2022/11/13 02:58:14;;;;;;;45.70;20.20;;;;;;;8.13;90.01;101789.14;103506;1292;25261;-61
2022/11/13 03:00:46;;;;;;;43.70;19.60;;;;;;;8.13;90.33;101791.27;103254;1286;23326;-59
2022/11/13 03:03:18;;;;;;;46.70;21.30;;;;;;;8.12;89.97;101788.02;103331;1310;22475;-60
2022/11/13 03:05:51;;;;;;;45.70;20.10;;;;;;;8.09;89.91;101785.61;103419;1309;22507;-60
2022/11/13 03:08:24;;;;;;;49.10;22.00;;;;;;;8.07;89.93;101784.53;103303;1287;22490;-60
2022/11/13 03:10:55;;;;;;;42.60;20.00;;;;;;;8.08;90.11;101780.55;103273;1310;23161;-61
2022/11/13 03:13:27;;;;;;;46.70;19.90;;;;;;;8.08;90.11;101779.91;103367;1282;22466;-60
2022/11/13 03:16:09;;;;;;;46.50;19.70;;;;;;;8.07;90.02;101774.05;103367;1287;25232;-61
2022/11/13 03:18:40;;;;;;;51.00;22.00;;;;;;;8.06;90.15;101768.98;103389;1286;24325;-60
2022/11/13 03:21:14;;;;;;;50.60;22.00;;;;;;;8.06;90.23;101766.98;103509;1281;22472;-58
2022/11/13 03:23:46;;;;;;;48.50;22.50;;;;;;;8.07;89.98;101768.88;103451;1310;22549;-60
2022/11/13 03:26:19;;;;;;;47.10;22.40;;;;;;;8.07;90.14;101770.31;103364;1308;22460;-61
2022/11/13 03:28:50;;;;;;;45.20;20.50;;;;;;;8.08;90.24;101769.66;103407;1281;22461;-59
2022/11/13 03:31:23;;;;;;;47.90;22.30;;;;;;;8.09;90.14;101765.76;103379;1303;24780;-60
2022/11/13 03:33:55;;;;;;;49.90;22.50;;;;;;;8.10;90.14;101763.02;103306;1280;22471;-61
2022/11/13 03:36:28;;;;;;;50.10;22.40;;;;;;;8.10;90.32;101765.33;103309;1304;22470;-61
2022/11/13 03:39:00;;;;;;;53.80;24.70;;;;;;;8.11;90.29;101767.86;103368;1304;22590;-61
2022/11/13 03:41:32;;;;;;;51.60;24.30;;;;;;;8.12;90.18;101769.98;103730;1302;22519;-58
2022/11/13 03:44:04;;;;;;;56.30;24.50;;;;;;;8.14;90.32;101763.66;103433;1290;25376;-61
2022/11/13 03:46:35;;;;;;;47.80;21.60;;;;;;;8.14;90.19;101761.20;103446;1308;24263;-61
2022/11/13 03:49:07;;;;;;;48.50;21.50;;;;;;;8.14;90.27;101759.77;103332;1274;24938;-61
2022/11/13 03:51:39;;;;;;;53.70;23.20;;;;;;;8.15;90.46;101758.02;103447;1288;22476;-59
2022/11/13 03:54:11;;;;;;;47.00;21.90;;;;;;;8.16;90.42;101753.23;103445;1304;22449;-60
2022/11/13 03:56:42;;;;;;;45.40;21.80;;;;;;;8.16;90.34;101755.99;103426;1304;22474;-57
2022/11/13 03:59:13;;;;;;;45.50;22.80;;;;;;;8.16;90.27;101756.70;103463;1304;23522;-60
2022/11/13 04:01:45;;;;;;;52.60;22.00;;;;;;;8.16;90.41;101757.20;103229;1301;23201;-60
2022/11/13 04:04:16;;;;;;;42.90;20.80;;;;;;;8.15;90.40;101753.31;103206;1300;22461;-62
2022/11/13 04:06:49;;;;;;;50.30;23.30;;;;;;;8.14;90.40;101750.63;103319;1287;24336;-60
2022/11/13 04:09:21;;;;;;;50.80;22.50;;;;;;;8.12;90.26;101749.56;103445;1310;22486;-59
2022/11/13 04:11:53;;;;;;;48.00;20.00;;;;;;;8.12;90.45;101755.69;103461;1303;22473;-60
2022/11/13 04:14:24;;;;;;;45.50;21.80;;;;;;;8.13;90.52;101757.96;103295;1292;25411;-61
2022/11/13 04:16:57;;;;;;;44.00;21.10;;;;;;;8.13;90.44;101752.95;103309;1304;22459;-61
2022/11/13 04:19:28;;;;;;;48.20;23.80;;;;;;;8.13;90.33;101755.20;103157;1288;24304;-59
2022/11/13 04:22:00;;;;;;;44.00;21.00;;;;;;;8.12;90.41;101759.81;103229;1280;23090;-60
2022/11/13 04:24:32;;;;;;;52.00;21.80;;;;;;;8.12;90.26;101762.77;103455;1304;22559;-60
2022/11/13 04:27:03;;;;;;;49.80;23.60;;;;;;;8.10;90.25;101761.36;103604;1304;22506;-60
2022/11/13 04:29:35;;;;;;;49.50;22.20;;;;;;;8.10;90.30;101768.98;103425;1304;25339;-62
2022/11/13 04:32:07;;;;;;;44.20;20.60;;;;;;;8.10;90.34;101767.08;103273;1281;22489;-59
2022/11/13 04:34:39;;;;;;;47.20;21.90;;;;;;;8.10;90.47;101765.58;103518;1304;24287;-60
2022/11/13 04:37:10;;;;;;;45.20;20.00;;;;;;;8.10;90.50;101769.78;103221;1280;25264;-60
2022/11/13 04:39:43;;;;;;;44.10;21.20;;;;;;;8.09;90.40;101769.73;103277;1288;22479;-64
2022/11/13 04:45:05;;;;;;;46.30;21.10;;;;;;;8.08;90.67;101771.34;103249;1298;26507;-61
2022/11/13 04:47:37;;;;;;;42.70;19.70;;;;;;;8.08;90.77;101770.92;103370;1304;24287;-61
2022/11/13 04:50:10;;;;;;;43.80;20.80;;;;;;;8.07;90.78;101774.84;103367;1281;24320;-60
2022/11/13 04:52:42;;;;;;;41.30;19.90;;;;;;;8.07;90.72;101771.65;103306;1280;22473;-64
2022/11/13 04:55:13;;;;;;;40.70;19.90;;;;;;;8.07;90.70;101768.80;103277;1282;25785;-62
2022/11/13 04:57:45;;;;;;;46.10;20.30;;;;;;;8.08;90.77;101774.51;103408;1281;25310;-62
2022/11/13 05:00:16;;;;;;;48.10;20.40;;;;;;;8.09;90.85;101775.92;103331;1303;22456;-61
2022/11/13 05:02:48;;;;;;;46.50;21.20;;;;;;;8.09;90.77;101772.96;103356;1290;22463;-60
2022/11/13 05:05:19;;;;;;;42.80;19.90;;;;;;;8.10;90.73;101765.58;103349;1280;24263;-60
2022/11/13 05:07:51;;;;;;;47.50;22.40;;;;;;;8.10;90.84;101768.44;103254;1281;22498;-60
2022/11/13 05:10:22;;;;;;;46.70;21.40;;;;;;;8.10;90.79;101768.11;103203;1296;26435;-60
2022/11/13 05:12:55;;;;;;;47.40;21.40;;;;;;;8.10;90.72;101770.27;103307;1291;24424;-59
2022/11/13 05:15:27;;;;;;;40.80;20.80;;;;;;;8.10;90.83;101769.47;103360;1303;24260;-59
2022/11/13 05:17:58;;;;;;;42.40;20.90;;;;;;;8.10;90.84;101770.52;103236;1304;22504;-60
2022/11/13 05:20:30;;;;;;;39.60;18.40;;;;;;;8.09;90.80;101768.92;103462;1282;25244;-59
2022/11/13 05:23:02;;;;;;;42.00;20.40;;;;;;;8.09;90.80;101767.02;103240;1282;25926;-60
2022/11/13 05:25:33;;;;;;;44.50;20.60;;;;;;;8.08;90.76;101775.70;103248;1294;22473;-59
2022/11/13 05:28:05;;;;;;;44.20;20.80;;;;;;;8.07;90.74;101775.63;103225;1289;22484;-61
2022/11/13 05:30:36;;;;;;;42.60;19.50;;;;;;;8.07;90.90;101777.77;103435;1303;22466;-60
2022/11/13 05:33:08;;;;;;;43.40;21.80;;;;;;;8.06;90.74;101775.33;103405;1303;24463;-60
2022/11/13 05:35:40;;;;;;;40.20;19.40;;;;;;;8.06;90.93;101769.54;103267;1303;25266;-60
2022/11/13 05:38:11;;;;;;;46.80;21.70;;;;;;;8.06;90.80;101772.00;103365;1281;22479;-61
2022/11/13 05:40:43;;;;;;;49.60;22.50;;;;;;;8.06;90.78;101769.77;103343;1304;22487;-59
2022/11/13 05:43:15;;;;;;;46.20;20.70;;;;;;;8.06;90.87;101765.17;103261;1282;22469;-59
2022/11/13 05:45:46;;;;;;;44.10;22.10;;;;;;;8.05;90.86;101765.10;103358;1282;22477;-60
2022/11/13 05:48:17;;;;;;;41.00;20.40;;;;;;;8.05;90.98;101763.67;103544;1282;24329;-63
2022/11/13 05:50:49;;;;;;;44.90;19.50;;;;;;;8.03;90.92;101757.98;103278;1306;24364;-61
2022/11/13 05:53:20;;;;;;;45.30;21.10;;;;;;;8.02;90.94;101761.11;103365;1280;24394;-60
2022/11/13 05:55:51;;;;;;;44.50;21.40;;;;;;;8.01;90.99;101756.60;103431;1304;25402;-60
2022/11/13 05:58:23;;;;;;;40.00;20.20;;;;;;;8.01;91.04;101760.48;103259;1303;22625;-60
2022/11/13 06:00:54;;;;;;;41.90;21.30;;;;;;;8.00;91.02;101760.59;103294;1304;22467;-60
2022/11/13 06:03:26;;;;;;;46.90;20.90;;;;;;;7.99;91.06;101759.73;103351;1297;24318;-63
2022/11/13 06:05:58;;;;;;;40.50;20.10;;;;;;;7.99;90.86;101758.39;103339;1303;22516;-59
2022/11/13 06:08:29;;;;;;;41.10;21.50;;;;;;;7.96;91.04;101757.96;103508;1306;24273;-59
2022/11/13 06:11:05;;;;;;;42.80;21.00;;;;;;;7.95;91.04;101756.55;103186;1280;22472;-62
2022/11/13 06:13:37;;;;;;;47.20;20.80;;;;;;;7.94;91.17;101753.48;103511;1280;22508;-62
2022/11/13 06:16:11;;;;;;;45.40;22.10;;;;;;;7.93;91.03;101747.38;103561;1280;22466;-62
2022/11/13 06:18:44;;;;;;;41.30;21.30;;;;;;;7.90;91.13;101745.59;103556;1303;22938;-62
2022/11/13 06:21:17;;;;;;;46.60;22.00;;;;;;;7.91;91.03;101745.50;103588;1287;22473;-63
2022/11/13 06:23:50;;;;;;;45.10;21.60;;;;;;;7.89;91.24;101744.42;103667;1297;22718;-63
2022/11/13 06:26:23;;;;;;;44.00;20.70;;;;;;;7.89;91.38;101745.14;103632;1303;23080;-61
2022/11/13 06:28:55;;;;;;;42.50;20.90;;;;;;;7.89;91.33;101748.15;103515;1281;25329;-62
2022/11/13 06:31:28;;;;;;;43.30;22.30;;;;;;;7.86;91.21;101751.14;103326;1296;23086;-62
2022/11/13 06:34:01;;;;;;;48.60;21.90;;;;;;;7.84;91.19;101754.69;103475;1281;22488;-62
2022/11/13 06:36:33;;;;;;;47.90;23.90;;;;;;;7.80;91.45;101751.80;103454;1296;22476;-62
2022/11/13 06:39:09;;;;;;;50.10;23.80;;;;;;;7.79;91.36;101750.41;103632;1303;22509;-61
2022/11/13 06:41:40;;;;;;;49.50;23.90;;;;;;;7.75;91.49;101744.83;103519;1303;24269;-62
2022/11/13 06:44:12;;;;;;;49.20;24.60;;;;;;;7.74;91.51;101749.14;103583;1281;22481;-62
2022/11/13 06:46:44;;;;;;;48.60;24.20;;;;;;;7.70;91.28;101748.09;103488;1281;22472;-63
2022/11/13 06:49:15;;;;;;;52.90;25.80;;;;;;;7.67;91.58;101745.52;103507;1304;24368;-61
2022/11/13 06:51:46;;;;;;;56.80;27.40;;;;;;;7.64;91.73;101745.11;103509;1281;22588;-62
2022/11/13 06:54:18;;;;;;;50.10;26.20;;;;;;;7.62;91.79;101743.95;103649;1284;22477;-63
2022/11/13 06:56:49;;;;;;;52.30;25.00;;;;;;;7.60;91.79;101745.72;103539;1304;22490;-62
2022/11/13 06:59:21;;;;;;;52.30;26.20;;;;;;;7.61;91.94;101748.10;103483;1278;22698;-61
2022/11/13 07:01:53;;;;;;;50.30;26.80;;;;;;;7.59;91.79;101745.35;103612;1281;22546;-61
2022/11/13 07:04:25;;;;;;;57.70;28.80;;;;;;;7.57;91.81;101741.09;103575;1302;22491;-62
2022/11/13 07:06:56;;;;;;;55.10;26.40;;;;;;;7.57;92.05;101741.73;103567;1282;22482;-64
2022/11/13 07:09:28;;;;;;;56.60;28.20;;;;;;;7.58;92.07;101742.10;103608;1303;25289;-62
2022/11/13 07:11:59;;;;;;;51.70;25.60;;;;;;;7.60;92.13;101740.33;103595;1303;25267;-63
2022/11/13 07:14:30;;;;;;;55.60;26.50;;;;;;;7.64;92.35;101739.70;103744;1291;25563;-62
2022/11/13 07:17:02;;;;;;;52.90;28.30;;;;;;;7.65;92.09;101738.81;103488;1304;23102;-62
2022/11/13 07:19:34;;;;;;;55.30;29.50;;;;;;;7.67;92.19;101737.49;103595;1275;25190;-61
2022/11/13 07:22:05;;;;;;;54.80;27.80;;;;;;;7.68;92.01;101731.76;103471;1282;22491;-62
2022/11/13 07:24:36;;;;;;;46.40;24.00;;;;;;;7.70;92.17;101731.81;103519;1303;22482;-62
2022/11/13 07:27:08;;;;;;;55.30;27.00;;;;;;;7.72;92.14;101730.03;103566;1303;23108;-63
2022/11/13 07:29:40;;;;;;;56.20;26.60;;;;;;;7.73;92.20;101729.86;103631;1303;22512;-63
2022/11/13 07:32:12;;;;;;;58.50;27.10;;;;;;;7.74;92.09;101731.84;103508;1303;24408;-61
2022/11/13 07:34:44;;;;;;;52.80;26.20;;;;;;;7.75;92.20;101733.15;103592;1278;22576;-62
2022/11/13 07:37:15;;;;;;;55.60;27.90;;;;;;;7.77;92.10;101730.27;103541;1304;22457;-62
2022/11/13 07:39:47;;;;;;;54.10;26.20;;;;;;;7.77;91.94;101733.13;103522;1301;22571;-62
2022/11/13 07:42:19;;;;;;;52.50;27.60;;;;;;;7.80;92.02;101723.23;103422;1304;25362;-63
2022/11/13 07:44:50;;;;;;;55.10;26.30;;;;;;;7.83;92.14;101723.01;103405;1300;22598;-63
2022/11/13 07:47:22;;;;;;;50.10;25.70;;;;;;;7.86;92.00;101717.77;103257;1298;23317;-62
2022/11/13 07:49:53;;;;;;;57.10;26.10;;;;;;;7.89;92.11;101716.14;103305;1297;25369;-62
2022/11/13 07:52:25;;;;;;;52.80;26.30;;;;;;;7.91;91.99;101712.14;103157;1273;22475;-62
2022/11/13 07:54:56;;;;;;;50.80;24.90;;;;;;;7.93;91.85;101710.43;103268;1281;22614;-63
2022/11/13 07:57:28;;;;;;;51.70;27.50;;;;;;;7.95;92.09;101710.24;103300;1303;22522;-62
2022/11/13 08:00:00;;;;;;;50.60;27.10;;;;;;;7.98;92.24;101714.39;103387;1303;22476;-63
2022/11/13 08:02:32;;;;;;;52.10;24.40;;;;;;;8.02;92.10;101717.73;103616;1303;22561;-63
2022/11/13 08:05:04;;;;;;;58.50;26.60;;;;;;;8.04;91.95;101728.09;103511;1304;22519;-62
2022/11/13 08:07:36;;;;;;;49.40;25.70;;;;;;;8.05;91.85;101722.19;103518;1303;22671;-62
2022/11/13 08:10:09;;;;;;;58.30;26.30;;;;;;;8.06;91.75;101715.35;103411;1282;26491;-63
2022/11/13 08:12:41;;;;;;;52.00;26.50;;;;;;;8.09;91.89;101714.81;103551;1303;22661;-63
2022/11/13 08:15:13;;;;;;;50.30;24.60;;;;;;;8.13;91.87;101714.58;103169;1281;22479;-62
2022/11/13 08:17:45;;;;;;;61.20;28.90;;;;;;;8.15;91.93;101718.27;103530;1304;22609;-64
2022/11/13 08:20:16;;;;;;;58.70;28.20;;;;;;;8.20;91.99;101719.14;103168;1281;24340;-62
2022/11/13 08:22:48;;;;;;;61.30;28.50;;;;;;;8.24;91.96;101720.57;103360;1303;22581;-62
2022/11/13 08:25:20;;;;;;;63.70;29.20;;;;;;;8.27;91.76;101726.34;103411;1281;22469;-62
2022/11/13 08:27:52;;;;;;;63.60;30.40;;;;;;;8.29;91.76;101724.40;103262;1304;22477;-62
2022/11/13 08:30:25;;;;;;;64.60;29.70;;;;;;;8.31;91.68;101719.66;103291;1281;22585;-62
2022/11/13 08:32:57;;;;;;;60.80;28.90;;;;;;;8.32;91.46;101727.59;103324;1276;22489;-62
2022/11/13 08:35:30;;;;;;;63.90;31.20;;;;;;;8.33;91.74;101726.60;103560;1303;22473;-63
2022/11/13 08:38:06;;;;;;;55.10;27.50;;;;;;;8.37;91.63;101725.74;103265;1299;23219;-63
2022/11/13 08:40:37;;;;;;;70.20;30.40;;;;;;;8.37;91.60;101725.66;103244;1282;25356;-62
2022/11/13 08:43:09;;;;;;;64.60;31.00;;;;;;;8.41;91.75;101727.02;103237;1273;22553;-63
2022/11/13 08:45:41;;;;;;;67.80;31.00;;;;;;;8.44;91.52;101724.55;103258;1304;22676;-62
2022/11/13 08:48:13;;;;;;;66.90;28.10;;;;;;;8.47;91.47;101723.63;103269;1291;22715;-63
2022/11/13 08:50:46;;;;;;;60.80;28.50;;;;;;;8.48;91.13;101723.86;103206;1296;22476;-63
2022/11/13 08:53:18;;;;;;;60.00;27.50;;;;;;;8.47;90.93;101723.40;103326;1274;25422;-63
2022/11/13 08:55:50;;;;;;;55.40;26.40;;;;;;;8.47;91.07;101722.51;103123;1303;25214;-63
2022/11/13 08:58:22;;;;;;;57.20;25.80;;;;;;;8.48;90.97;101730.36;103147;1282;22456;-63
2022/11/13 09:00:59;;;;;;;64.00;30.00;;;;;;;8.49;90.78;101733.21;103349;1281;25559;-62
2022/11/13 09:03:32;;;;;;;54.60;27.70;;;;;;;8.50;90.87;101730.56;103323;1281;24202;-64
2022/11/13 09:06:07;;;;;;;51.50;26.50;;;;;;;8.51;90.89;101728.94;103350;1303;22826;-62
2022/11/13 09:08:38;;;;;;;55.40;27.80;;;;;;;8.53;90.74;101738.05;103211;1305;22455;-64
2022/11/13 09:11:11;;;;;;;60.30;30.00;;;;;;;8.56;90.79;101733.08;103318;1284;25502;-62
2022/11/13 09:13:43;;;;;;;64.60;31.30;;;;;;;8.57;90.73;101731.20;103341;1274;25355;-62
2022/11/13 09:16:16;;;;;;;67.30;33.00;;;;;;;8.60;90.77;101727.10;103217;1303;22461;-63
2022/11/13 09:18:50;;;;;;;60.60;28.00;;;;;;;8.61;90.56;101733.02;103200;1303;24263;-63
2022/11/13 09:21:22;;;;;;;57.10;28.20;;;;;;;8.64;90.49;101735.68;103275;1282;22517;-61
2022/11/13 09:23:54;;;;;;;61.30;30.30;;;;;;;8.65;90.63;101733.83;103329;1303;22481;-63
2022/11/13 09:26:26;;;;;;;61.00;30.60;;;;;;;8.68;90.68;101732.17;103559;1297;24237;-64
2022/11/13 09:28:57;;;;;;;58.80;31.50;;;;;;;8.69;90.53;101727.20;103226;1281;22466;-62
2022/11/13 09:31:29;;;;;;;64.40;32.10;;;;;;;8.72;90.66;101730.34;103365;1281;22475;-63
2022/11/13 09:34:00;;;;;;;62.10;31.40;;;;;;;8.75;90.72;101729.88;103278;1303;23799;-63
2022/11/13 09:36:33;;;;;;;69.60;33.80;;;;;;;8.77;90.54;101728.14;103417;1303;22477;-62
2022/11/13 09:39:04;;;;;;;63.00;31.60;;;;;;;8.79;90.34;101727.38;103458;1303;22696;-63
2022/11/13 09:41:42;;;;;;;64.90;34.00;;;;;;;8.79;90.23;101728.50;103344;1293;22569;-62
2022/11/13 09:44:19;;;;;;;66.60;32.60;;;;;;;8.81;90.40;101733.47;103391;1280;24288;-62
2022/11/13 09:46:54;;;;;;;69.90;33.60;;;;;;;8.82;90.15;101731.62;103216;1281;22609;-63
2022/11/13 09:49:29;;;;;;;67.60;32.40;;;;;;;8.82;90.00;101729.39;103416;1288;26699;-64
2022/11/13 09:52:05;;;;;;;68.00;34.60;;;;;;;8.83;90.22;101727.87;103347;1303;22527;-63
2022/11/13 09:54:38;;;;;;;73.60;35.10;;;;;;;8.85;90.18;101723.67;103316;1281;22501;-63
2022/11/13 09:57:27;;;;;;;78.10;37.60;;;;;;;8.87;90.10;101724.36;103499;1281;24424;-63
2022/11/13 10:00:04;;;;;;;79.30;38.80;;;;;;;8.86;89.91;101727.87;103464;1303;22481;-62
2022/11/13 10:02:45;;;;;;;83.60;45.50;;;;;;;8.84;90.05;101725.45;103455;1283;24293;-62
2022/11/13 10:05:29;;;;;;;76.40;40.40;;;;;;;8.86;90.28;101728.27;103251;1281;22731;-62
2022/11/13 10:08:07;;;;;;;85.90;38.70;;;;;;;8.90;90.16;101728.59;103058;1281;22729;-62
2022/11/13 10:10:50;;;;;;;77.10;39.10;;;;;;;8.92;90.16;101726.88;103218;1281;24253;-62
2022/11/13 10:13:26;;;;;;;74.50;36.90;;;;;;;8.93;90.05;101727.80;103600;1283;22464;-64
2022/11/13 10:16:21;;;;;;;75.40;33.80;;;;;;;8.94;90.02;101724.89;103232;1297;22902;-62
2022/11/13 10:19:07;;;;;;;66.70;33.10;;;;;;;8.99;89.98;101722.66;103220;1291;22496;-63
2022/11/13 10:21:45;;;;;;;69.70;33.40;;;;;;;9.01;89.82;101723.80;103542;1304;22537;-62
2022/11/13 10:24:21;;;;;;;68.70;33.10;;;;;;;9.01;89.58;101721.65;103419;1303;24314;-62
2022/11/13 10:26:55;;;;;;;72.10;32.30;;;;;;;9.00;89.32;101721.42;103328;1303;22588;-63
2022/11/13 10:29:29;;;;;;;72.80;34.80;;;;;;;8.98;89.39;101716.54;103303;1304;22928;-63
2022/11/13 10:32:51;;;;;;;64.90;31.80;;;;;;;8.95;89.26;101713.48;103160;1277;354501;-62
2022/11/13 10:35:41;;;;;;;73.10;33.20;;;;;;;8.92;89.33;101709.12;103293;1297;24417;-63
2022/11/13 10:38:20;;;;;;;72.90;31.90;;;;;;;8.92;89.62;101709.90;103300;1304;25296;-63
2022/11/13 10:40:52;;;;;;;63.40;32.40;;;;;;;8.94;89.40;101705.08;103189;1279;24146;-63
2022/11/13 10:43:26;;;;;;;68.20;30.20;;;;;;;8.93;89.21;101702.55;103310;1281;22606;-63
2022/11/13 10:45:59;;;;;;;66.20;31.10;;;;;;;8.90;89.00;101688.48;103236;1285;22481;-63
2022/11/13 10:48:34;;;;;;;70.30;33.10;;;;;;;8.87;88.98;101685.75;103183;1280;22544;-63
2022/11/13 10:51:27;;;;;;;62.80;32.30;;;;;;;8.82;88.98;101684.98;103212;1303;24323;-62
2022/11/13 10:54:00;;;;;;;64.20;29.70;;;;;;;8.80;89.17;101687.59;103261;1303;22473;-63
2022/11/13 10:56:33;;;;;;;72.80;31.80;;;;;;;8.78;89.22;101684.92;103437;1304;22637;-62
2022/11/13 10:59:13;;;;;;;68.10;32.10;;;;;;;8.75;88.99;101683.81;103273;1274;25283;-62
2022/11/13 11:01:45;;;;;;;69.30;32.40;;;;;;;8.72;89.19;101684.51;103248;1282;26484;-62
2022/11/13 11:04:27;;;;;;;68.30;34.10;;;;;;;8.74;89.38;101683.42;103148;1279;22817;-62
2022/11/13 11:07:12;;;;;;;68.40;34.50;;;;;;;8.75;89.17;101681.73;103196;1304;22597;-63
2022/11/13 11:09:45;;;;;;;88.10;42.80;;;;;;;8.75;89.17;101682.05;103163;1281;24306;-63
2022/11/13 11:12:21;;;;;;;92.20;43.50;;;;;;;8.73;89.26;101682.17;103274;1304;22578;-66
2022/11/13 11:15:15;;;;;;;87.50;43.40;;;;;;;8.74;88.98;101680.48;103573;1280;22607;-63
2022/11/13 11:17:50;;;;;;;86.60;39.80;;;;;;;8.74;89.08;101682.16;103404;1299;22607;-63
2022/11/13 11:20:32;;;;;;;75.10;36.70;;;;;;;8.73;89.09;101678.11;103160;1304;24020;-63
2022/11/13 11:23:15;;;;;;;64.30;33.50;;;;;;;8.72;89.03;101678.23;103272;1297;22474;-65
2022/11/13 11:25:52;;;;;;;80.40;37.10;;;;;;;8.70;89.00;101674.36;103284;1281;22466;-65
2022/11/13 11:28:32;;;;;;;78.10;38.80;;;;;;;8.70;88.92;101667.77;103207;1273;25332;-65
2022/11/13 11:31:11;;;;;;;60.80;29.90;;;;;;;8.72;89.22;101666.62;103345;1297;24562;-65
2022/11/13 11:33:52;;;;;;;64.10;29.30;;;;;;;8.74;89.19;101664.42;103337;1278;22611;-63
2022/11/13 11:36:33;;;;;;;55.60;27.70;;;;;;;8.73;88.87;101660.55;103246;1296;22466;-62
2022/11/13 11:39:15;;;;;;;61.20;29.90;;;;;;;8.70;88.79;101657.66;103389;1291;25309;-63
2022/11/13 11:41:53;;;;;;;62.70;30.70;;;;;;;8.70;88.90;101653.92;103220;1304;25385;-64